Huvudsida
METAR-TAF:

METAR-TAF

Flygplatser :

Karlstad Airport

Karlstad, Sverige

latitud: 59-26-41N, longitud: 013-20-15E, höjd: 107 m

Aktuellt väderrapport

Denna rapport gjordes för 16 minuter sedan, klockan 09:50 UTC
Vind 13 kt från väst/sydväst
Temperatur 8°C
Fuktighet 76%
Tryck 1015 hPa
Sikt 10 km eller mer
Få moln på en höjd av 1700 ft

METAR: ESOK 200950Z 24013KT 9999 FEW017 08/04 Q1015

Tid: 11:06 (10:06 UTC)

Väderprognos

Denna rapport gjordes för 1 timme och 36 minuter sedan, klockan 08:30 UTC
Prognos gäller från 20 kl. 09 UTC till 20 kl. 18 UTC
Vind 12 kt från väst
Sikt 10 km eller mer
Mulet på en höjd av 700 ft
Blir
från 20 kl. 09 UTC till 20 kl. 11 UTC

TAF: ESOK 200830Z 2009/2018 27012KT 9999 OVC007 BECMG 2009/2011 NSC

Aktuella väderrapporter och prognoser från 4000 flygplatser (METAR- och TAF-rapporter).

De tillgängliga stationerna syns som gula och röda prickar på kartan.

För musen över prickarna för att se namnen på stationerna.

Klicka sedan för att få väderrapporter och prognoser.

För att ändra kartan: Klicka på de gröna knapparna med ett svart kors på för att zooma in; den gröna knappen med ett streck på för att zooma ut; eller på de gröna pilarna för angränsande kartor.


METAR-TAF: